createdAt,value
2022-08-16T00:01:24.612Z,98747.59
2022-08-16T00:03:53.987Z,98756.78
2022-08-16T00:06:22.706Z,98755.16
2022-08-16T00:08:52.651Z,98757.97
2022-08-16T00:11:20.812Z,98752.34
2022-08-16T00:13:53.418Z,98758.72
2022-08-16T00:17:00.848Z,98751.13
2022-08-16T00:19:20.320Z,98752.06
2022-08-16T00:21:56.125Z,98748.63
2022-08-16T00:24:32.309Z,98757.81
2022-08-16T00:27:02.573Z,98761.97
2022-08-16T00:29:30.360Z,98770.22
2022-08-16T00:32:05.330Z,98766.66
2022-08-16T00:34:43.772Z,98769.47
2022-08-16T00:37:17.109Z,98766.53
2022-08-16T00:39:47.078Z,98764.34
2022-08-16T00:42:29.750Z,98764.34
2022-08-16T00:45:25.199Z,98762.38
2022-08-16T00:47:53.621Z,98769.47
2022-08-16T00:50:35.840Z,98763.09
2022-08-16T00:53:09.610Z,98769.88
2022-08-16T00:55:42.061Z,98760.06
2022-08-16T00:58:12.905Z,98770.22
2022-08-16T01:00:44.376Z,98771.16
2022-08-16T01:03:30.180Z,98772.63
2022-08-16T01:06:00.170Z,98766.38
2022-08-16T01:08:50.905Z,98766.81
2022-08-16T01:11:18.727Z,98766.72
2022-08-16T01:13:50.878Z,98785.03
2022-08-16T01:16:27.060Z,98799.41
2022-08-16T01:19:35.800Z,98808.13
2022-08-16T01:22:47.141Z,98814.22
2022-08-16T01:25:12.763Z,98813.38
2022-08-16T01:27:47.111Z,98810.56
2022-08-16T01:30:19.271Z,98815.47
2022-08-16T01:32:59.579Z,98813.63
2022-08-16T01:35:39.832Z,98814.66
2022-08-16T01:38:39.643Z,98804.94
2022-08-16T01:41:19.064Z,98789.06
2022-08-16T01:43:53.829Z,98807.00
2022-08-16T01:46:39.613Z,98818.06
2022-08-16T01:49:43.638Z,98816.78
2022-08-16T01:52:28.154Z,98822.81
2022-08-16T01:55:18.593Z,98811.06
2022-08-16T01:57:53.535Z,98808.25
2022-08-16T02:00:28.805Z,98823.47
2022-08-16T02:02:58.315Z,98824.59
2022-08-16T02:05:25.808Z,98820.06
2022-08-16T02:07:59.193Z,98823.41
2022-08-16T02:10:27.957Z,98819.97
2022-08-16T02:13:00.548Z,98819.25
2022-08-16T02:15:35.347Z,98824.66
2022-08-16T02:18:04.258Z,98824.66
2022-08-16T02:20:39.496Z,98844.75
2022-08-16T02:23:10.688Z,98836.41
2022-08-16T02:25:52.196Z,98835.41
2022-08-16T02:28:23.654Z,98828.81
2022-08-16T02:30:55.852Z,98829.94
2022-08-16T02:33:24.564Z,98828.34
2022-08-16T02:36:47.584Z,98829.56
2022-08-16T02:39:04.385Z,98828.72
2022-08-16T02:41:31.788Z,98827.88
2022-08-16T02:44:08.867Z,98829.84
2022-08-16T02:46:37.142Z,98829.09
2022-08-16T02:49:07.794Z,98830.34
2022-08-16T02:51:39.689Z,98836.47
2022-08-16T02:54:09.775Z,98830.47
2022-08-16T02:56:37.756Z,98834.16
2022-08-16T02:59:11.790Z,98844.44
2022-08-16T03:01:45.583Z,98831.34
2022-08-16T03:04:40.899Z,98830.72
2022-08-16T03:07:06.353Z,98833.91
2022-08-16T03:09:41.395Z,98842.09
2022-08-16T03:12:14.074Z,98833.78
2022-08-16T03:14:45.547Z,98834.41
2022-08-16T03:17:14.051Z,98833.31
2022-08-16T03:19:48.378Z,98840.41
2022-08-16T03:22:28.197Z,98837.84
2022-08-16T03:25:00.687Z,98837.97
2022-08-16T03:27:31.264Z,98845.03
2022-08-16T03:30:16.361Z,98849.09
2022-08-16T03:32:51.748Z,98855.69
2022-08-16T03:35:32.612Z,98856.31
2022-08-16T03:38:33.498Z,98855.81
2022-08-16T03:41:25.156Z,98858.13
2022-08-16T03:44:00.917Z,98865.13
2022-08-16T03:46:48.287Z,98859.38
2022-08-16T03:49:36.696Z,98854.00
2022-08-16T03:52:07.655Z,98855.69
2022-08-16T03:54:37.242Z,98859.72
2022-08-16T03:57:05.340Z,98854.22
2022-08-16T03:59:33.519Z,98858.97
2022-08-16T04:02:12.266Z,98858.84
2022-08-16T04:04:50.875Z,98851.38
2022-08-16T04:07:18.528Z,98854.03
2022-08-16T04:09:47.605Z,98863.56
2022-08-16T04:12:54.432Z,98858.22
2022-08-16T04:15:04.714Z,98860.41
2022-08-16T04:17:42.127Z,98869.72
2022-08-16T04:20:29.560Z,98871.19
2022-08-16T04:23:02.339Z,98870.81
2022-08-16T04:25:31.678Z,98879.00
2022-08-16T04:28:29.007Z,98872.06
2022-08-16T04:30:50.535Z,98867.91
2022-08-16T04:33:19.409Z,98874.22
2022-08-16T04:35:58.036Z,98868.09
2022-08-16T04:38:26.855Z,98865.88
2022-08-16T04:40:57.166Z,98867.34
2022-08-16T04:43:25.541Z,98859.88
2022-08-16T04:46:00.901Z,98864.88
2022-08-16T04:48:35.643Z,98872.88
2022-08-16T04:51:12.970Z,98868.81
2022-08-16T04:53:48.685Z,98873.34
2022-08-16T04:56:20.205Z,98863.03
2022-08-16T04:58:48.141Z,98877.56
2022-08-16T05:01:18.180Z,98876.78
2022-08-16T05:03:59.991Z,98883.56
2022-08-16T05:06:42.043Z,98884.91
2022-08-16T05:09:23.171Z,98888.06
2022-08-16T05:11:53.112Z,98890.91
2022-08-16T05:14:45.191Z,98892.19
2022-08-16T05:17:14.929Z,98899.47
2022-08-16T05:19:46.744Z,98894.03
2022-08-16T05:22:28.297Z,98901.25
2022-08-16T05:24:57.511Z,98908.88
2022-08-16T05:27:24.827Z,98903.41
2022-08-16T05:29:57.365Z,98909.16
2022-08-16T05:32:32.024Z,98913.25
2022-08-16T05:35:14.995Z,98913.91
2022-08-16T05:38:00.287Z,98911.69
2022-08-16T05:40:29.110Z,98907.66
2022-08-16T05:42:59.091Z,98920.25
2022-08-16T05:45:27.078Z,98915.22
2022-08-16T05:47:59.406Z,98909.38
2022-08-16T05:50:34.026Z,98903.06
2022-08-16T05:53:03.795Z,98906.53
2022-08-16T05:55:40.806Z,98901.06
2022-08-16T05:58:09.095Z,98900.22
2022-08-16T06:00:56.735Z,98906.72
2022-08-16T06:03:25.427Z,98903.72
2022-08-16T06:06:27.906Z,98907.47
2022-08-16T06:08:56.610Z,98917.53
2022-08-16T06:11:26.684Z,98923.81
2022-08-16T06:14:00.136Z,98924.47
2022-08-16T06:16:35.174Z,98918.22
2022-08-16T06:19:04.892Z,98922.31
2022-08-16T06:21:36.797Z,98927.63
2022-08-16T06:24:52.699Z,98924.19
2022-08-16T06:26:57.555Z,98928.63
2022-08-16T06:29:29.627Z,98944.13
2022-08-16T06:31:58.678Z,98933.28
2022-08-16T06:34:54.980Z,98931.53
2022-08-16T06:37:17.381Z,98933.84
2022-08-16T06:39:50.107Z,98923.81
2022-08-16T06:42:39.591Z,98931.78
2022-08-16T06:45:43.504Z,98947.22
2022-08-16T06:48:33.223Z,98950.97
2022-08-16T06:51:06.309Z,98963.25
2022-08-16T06:53:36.478Z,98970.53
2022-08-16T06:56:14.283Z,98971.66
2022-08-16T06:58:58.892Z,98977.13
2022-08-16T07:01:43.337Z,98975.28
2022-08-16T07:04:28.176Z,98975.06
2022-08-16T07:07:03.362Z,98974.38
2022-08-16T07:09:31.485Z,98982.47
2022-08-16T07:12:03.261Z,98974.97
2022-08-16T07:14:36.236Z,98980.44
2022-08-16T07:17:07.997Z,98977.00
2022-08-16T07:20:03.013Z,98979.91
2022-08-16T07:22:36.786Z,98975.06
2022-08-16T07:25:16.928Z,98983.75
2022-08-16T07:27:48.162Z,98983.69
2022-08-16T07:30:45.792Z,98990.59
2022-08-16T07:33:51.487Z,98989.63
2022-08-16T07:36:09.711Z,98983.44
2022-08-16T07:38:42.729Z,98986.06
2022-08-16T07:41:11.127Z,98984.47
2022-08-16T07:43:44.190Z,98996.06
2022-08-16T07:46:39.394Z,98991.03
2022-08-16T07:49:11.451Z,98993.13
2022-08-16T07:51:41.393Z,99000.22
2022-08-16T07:54:14.472Z,98993.16
2022-08-16T07:56:51.283Z,98999.59
2022-08-16T07:59:25.029Z,99003.91
2022-08-16T08:02:12.776Z,99002.22
2022-08-16T08:04:50.997Z,99012.53
2022-08-16T08:07:21.728Z,98997.84
2022-08-16T08:09:52.647Z,98994.53
2022-08-16T08:12:31.840Z,98999.47
2022-08-16T08:15:02.959Z,99005.38
2022-08-16T08:17:43.123Z,98998.16
2022-08-16T08:20:20.830Z,99003.00
2022-08-16T08:23:03.565Z,99009.47
2022-08-16T08:25:53.435Z,99010.94
2022-08-16T08:28:25.671Z,99002.28
2022-08-16T08:31:05.369Z,99000.72
2022-08-16T08:33:38.444Z,99008.06
2022-08-16T08:36:22.155Z,99004.28
2022-08-16T08:38:54.140Z,99008.66
2022-08-16T08:41:28.378Z,99005.47
2022-08-16T08:43:58.124Z,99018.69
2022-08-16T08:46:26.910Z,99014.09
2022-08-16T08:49:00.002Z,99014.28
2022-08-16T08:51:36.898Z,99018.41
2022-08-16T08:54:09.678Z,99019.56
2022-08-16T08:56:45.857Z,99014.06
2022-08-16T08:59:40.862Z,99020.84
2022-08-16T09:02:11.683Z,99021.25
2022-08-16T09:04:47.502Z,99019.78
2022-08-16T09:07:19.326Z,99029.03
2022-08-16T09:09:47.768Z,99024.31
2022-08-16T09:12:36.319Z,99015.69
2022-08-16T09:15:09.926Z,99032.16
2022-08-16T09:17:51.698Z,99033.41
2022-08-16T09:20:29.361Z,99025.59
2022-08-16T09:22:57.165Z,99015.63
2022-08-16T09:25:41.264Z,99030.72
2022-08-16T09:29:13.958Z,99019.03
2022-08-16T09:31:24.682Z,99020.69
2022-08-16T09:33:52.872Z,99016.84
2022-08-16T09:36:32.255Z,99019.94
2022-08-16T09:39:01.252Z,99018.31
2022-08-16T09:41:32.243Z,99011.84
2022-08-16T09:45:08.936Z,99014.75
2022-08-16T09:46:49.350Z,99023.72
2022-08-16T09:49:19.703Z,99016.53
2022-08-16T09:51:53.602Z,99021.78
2022-08-16T09:54:22.571Z,99010.34
2022-08-16T09:56:52.220Z,99018.75
2022-08-16T09:59:22.475Z,99007.03
2022-08-16T10:01:51.682Z,99012.00
2022-08-16T10:04:31.675Z,99008.34
2022-08-16T10:07:15.128Z,99011.31
2022-08-16T10:09:55.833Z,99013.03
2022-08-16T10:12:56.036Z,99013.34
2022-08-16T10:15:30.202Z,99018.81
2022-08-16T10:18:01.454Z,99008.75
2022-08-16T10:20:39.006Z,99021.94
2022-08-16T10:23:17.286Z,99012.69
2022-08-16T10:27:19.575Z,99007.03
2022-08-16T10:28:40.262Z,99010.97
2022-08-16T10:31:12.037Z,99005.09
2022-08-16T10:33:45.293Z,99010.03
2022-08-16T10:36:37.774Z,99004.75
2022-08-16T10:39:02.036Z,98999.28
2022-08-16T10:41:33.055Z,99004.09
2022-08-16T10:44:00.420Z,98998.72
2022-08-16T10:46:39.086Z,99000.78
2022-08-16T10:49:11.360Z,99001.56
2022-08-16T10:52:01.954Z,99001.34
2022-08-16T10:54:29.753Z,99001.75
2022-08-16T10:57:04.215Z,98996.72
2022-08-16T10:59:44.096Z,99005.22
2022-08-16T11:03:00.338Z,99000.16
2022-08-16T11:05:11.826Z,99008.22
2022-08-16T11:07:43.321Z,99006.31
2022-08-16T11:11:01.587Z,99002.78
2022-08-16T11:15:57.732Z,99001.50
2022-08-16T11:19:03.900Z,99011.56
2022-08-16T11:21:29.518Z,99010.06
2022-08-16T11:23:58.964Z,99003.94
2022-08-16T11:26:27.350Z,98996.22
2022-08-16T11:29:13.146Z,99008.25
2022-08-16T11:31:43.405Z,99002.31
2022-08-16T11:34:16.291Z,99005.06
2022-08-16T11:36:53.554Z,99010.78
2022-08-16T11:39:28.581Z,99003.75
2022-08-16T11:41:58.802Z,99010.72
2022-08-16T11:44:52.170Z,99001.47
2022-08-16T11:47:13.126Z,99008.44
2022-08-16T11:49:40.295Z,99005.09
2022-08-16T11:52:08.078Z,99001.94
2022-08-16T11:54:36.772Z,99008.34
2022-08-16T11:57:09.187Z,98999.00
2022-08-16T11:59:39.887Z,99004.00
2022-08-16T12:02:31.657Z,98986.38
2022-08-16T12:04:58.767Z,98988.94
2022-08-16T12:07:28.253Z,98985.75
2022-08-16T12:09:57.890Z,98985.06
2022-08-16T12:12:24.894Z,98979.53
2022-08-16T12:14:59.504Z,98974.53
2022-08-16T12:17:33.734Z,98978.97
2022-08-16T12:20:02.059Z,98980.31
2022-08-16T12:22:34.052Z,98983.38
2022-08-16T12:25:14.557Z,98982.94
2022-08-16T12:27:44.559Z,98978.72
2022-08-16T12:30:21.786Z,98978.75
2022-08-16T12:33:00.113Z,98972.38
2022-08-16T12:35:32.748Z,98971.09
2022-08-16T12:38:01.480Z,98971.09
2022-08-16T12:40:53.029Z,98971.44
2022-08-16T12:43:23.783Z,98961.88
2022-08-16T12:45:55.440Z,98967.56
2022-08-16T12:48:46.466Z,98968.16
2022-08-16T12:51:23.845Z,98968.69
2022-08-16T12:53:52.942Z,98964.44
2022-08-16T12:56:25.174Z,98974.00
2022-08-16T12:58:55.336Z,98967.56
2022-08-16T13:01:27.109Z,98964.84
2022-08-16T13:04:11.822Z,98966.59
2022-08-16T13:06:48.794Z,98969.31
2022-08-16T13:09:20.984Z,98972.19
2022-08-16T13:12:07.287Z,98970.75
2022-08-16T13:14:43.283Z,98960.13
2022-08-16T13:17:18.497Z,98966.72
2022-08-16T13:20:07.355Z,98959.63
2022-08-16T13:22:41.475Z,98963.13
2022-08-16T13:25:10.274Z,98954.31
2022-08-16T13:28:02.308Z,98958.41
2022-08-16T13:30:41.650Z,98957.66
2022-08-16T13:33:27.629Z,98966.63
2022-08-16T13:35:59.347Z,98955.25
2022-08-16T13:38:36.770Z,98952.69
2022-08-16T13:41:10.750Z,98950.44
2022-08-16T13:43:39.184Z,98957.56
2022-08-16T13:46:07.097Z,98956.06
2022-08-16T13:48:42.567Z,98959.00
2022-08-16T13:51:18.118Z,98949.09
2022-08-16T13:53:54.155Z,98947.78
2022-08-16T13:56:25.843Z,98950.69
2022-08-16T13:59:06.089Z,98946.38
2022-08-16T14:01:33.309Z,98951.38
2022-08-16T14:04:06.265Z,98950.38
2022-08-16T14:06:38.401Z,98947.34
2022-08-16T14:09:07.224Z,98942.16
2022-08-16T14:11:36.126Z,98935.63
2022-08-16T14:14:06.225Z,98938.25
2022-08-16T14:16:35.351Z,98932.44
2022-08-16T14:19:03.773Z,98933.97
2022-08-16T14:21:35.157Z,98937.00
2022-08-16T14:24:08.162Z,98929.91
2022-08-16T14:26:50.950Z,98934.22
2022-08-16T14:29:20.223Z,98927.81
2022-08-16T14:31:53.480Z,98920.81
2022-08-16T14:34:25.725Z,98927.28
2022-08-16T14:36:55.605Z,98921.28
2022-08-16T14:39:23.575Z,98918.19
2022-08-16T14:41:53.637Z,98922.53
2022-08-16T14:44:23.934Z,98916.72
2022-08-16T14:46:57.959Z,98915.25
2022-08-16T14:49:25.487Z,98912.50
2022-08-16T14:51:52.530Z,98911.72
2022-08-16T14:54:20.244Z,98909.69
2022-08-16T14:56:55.219Z,98911.84
2022-08-16T14:59:24.472Z,98911.28
2022-08-16T15:01:59.255Z,98911.94
2022-08-16T15:04:39.217Z,98915.31
2022-08-16T15:07:17.072Z,98907.31
2022-08-16T15:10:00.895Z,98916.66
2022-08-16T15:12:33.840Z,98915.25
2022-08-16T15:15:12.753Z,98909.47
2022-08-16T15:17:55.883Z,98912.94
2022-08-16T15:20:29.357Z,98914.47
2022-08-16T15:23:01.512Z,98917.06
2022-08-16T15:25:33.942Z,98910.44
2022-08-16T15:28:05.778Z,98919.81
2022-08-16T15:30:58.450Z,98910.22
2022-08-16T15:33:29.197Z,98909.59
2022-08-16T15:35:59.876Z,98913.00
2022-08-16T15:38:57.395Z,98906.41
2022-08-16T15:41:51.689Z,98902.69
2022-08-16T15:44:24.549Z,98906.88
2022-08-16T15:46:58.830Z,98904.03
2022-08-16T15:49:37.791Z,98909.13
2022-08-16T15:52:24.966Z,98903.94
2022-08-16T15:55:13.424Z,98900.88
2022-08-16T15:57:52.922Z,98899.44
2022-08-16T16:00:26.592Z,98909.47
2022-08-16T16:03:10.047Z,98901.63
2022-08-16T16:05:43.818Z,98908.63
2022-08-16T16:08:12.959Z,98897.72
2022-08-16T16:10:54.354Z,98905.41
2022-08-16T16:13:23.338Z,98902.50
2022-08-16T16:15:53.828Z,98900.16
2022-08-16T16:18:26.115Z,98900.75
2022-08-16T16:20:56.466Z,98897.63
2022-08-16T16:23:54.831Z,98901.25
2022-08-16T16:26:25.274Z,98904.06
2022-08-16T16:29:08.715Z,98898.16
2022-08-16T16:31:43.979Z,98895.06
2022-08-16T16:34:32.213Z,98893.44
2022-08-16T16:37:03.455Z,98898.28
2022-08-16T16:39:32.632Z,98890.22
2022-08-16T16:42:04.312Z,98889.47
2022-08-16T16:44:36.465Z,98897.13
2022-08-16T16:47:04.517Z,98903.91
2022-08-16T16:49:33.844Z,98894.88
2022-08-16T16:52:06.960Z,98906.28
2022-08-16T16:54:35.749Z,98905.41
2022-08-16T16:57:04.062Z,98909.03
2022-08-16T16:59:31.147Z,98901.50
2022-08-16T17:02:38.998Z,98905.91
2022-08-16T17:04:48.393Z,98905.81
2022-08-16T17:07:17.104Z,98907.88
2022-08-16T17:09:46.914Z,98908.31
2022-08-16T17:12:25.023Z,98904.25
2022-08-16T17:14:56.356Z,98908.75
2022-08-16T17:17:24.568Z,98907.19
2022-08-16T17:19:54.162Z,98911.09
2022-08-16T17:22:23.132Z,98913.81
2022-08-16T17:24:54.445Z,98917.28
2022-08-16T17:27:24.102Z,98916.13
2022-08-16T17:30:29.399Z,98915.28
2022-08-16T17:33:11.489Z,98920.06
2022-08-16T17:35:55.512Z,98929.47
2022-08-16T17:38:39.320Z,98928.84
2022-08-16T17:41:15.659Z,98926.94
2022-08-16T17:43:44.884Z,98924.91
2022-08-16T17:46:50.667Z,98932.38
2022-08-16T17:49:07.868Z,98930.84
2022-08-16T17:51:35.049Z,98940.25
2022-08-16T17:54:03.641Z,98939.78
2022-08-16T17:56:30.831Z,98938.03
2022-08-16T17:59:01.204Z,98942.19
2022-08-16T18:01:28.649Z,98940.44
2022-08-16T18:04:08.958Z,98945.72
2022-08-16T18:06:38.648Z,98945.34
2022-08-16T18:09:07.970Z,98948.13
2022-08-16T18:11:41.274Z,98947.56
2022-08-16T18:14:10.787Z,98955.19
2022-08-16T18:16:38.333Z,98952.56
2022-08-16T18:19:05.593Z,98957.38
2022-08-16T18:21:51.404Z,98950.47
2022-08-16T18:24:19.086Z,98955.00
2022-08-16T18:26:46.244Z,98960.25
2022-08-16T18:29:16.347Z,98955.53
2022-08-16T18:31:43.764Z,98956.75
2022-08-16T18:34:10.856Z,98960.22
2022-08-16T18:36:38.087Z,98960.97
2022-08-16T18:39:06.028Z,98962.13
2022-08-16T18:41:37.241Z,98965.53
2022-08-16T18:44:25.484Z,98958.41
2022-08-16T18:46:57.223Z,98960.53
2022-08-16T18:49:24.571Z,98964.31
2022-08-16T18:51:56.479Z,98964.47
2022-08-16T18:54:24.594Z,98963.38
2022-08-16T18:56:56.797Z,98966.13
2022-08-16T18:59:28.016Z,98961.75
2022-08-16T19:02:00.336Z,98966.22
2022-08-16T19:04:47.586Z,98965.41
2022-08-16T19:07:31.318Z,98975.81
2022-08-16T19:10:00.421Z,98970.38
2022-08-16T19:12:38.107Z,98976.59
2022-08-16T19:15:16.190Z,98973.31
2022-08-16T19:17:44.863Z,98977.78
2022-08-16T19:20:14.678Z,98976.84
2022-08-16T19:23:04.364Z,98976.66
2022-08-16T19:25:47.198Z,98979.56
2022-08-16T19:28:51.409Z,98979.22
2022-08-16T19:31:21.489Z,98982.69
2022-08-16T19:33:54.848Z,98985.88
2022-08-16T19:36:35.110Z,98983.50
2022-08-16T19:39:11.531Z,98990.53
2022-08-16T19:41:44.204Z,99000.44
2022-08-16T19:44:12.387Z,98991.94
2022-08-16T19:46:45.226Z,98991.72
2022-08-16T19:49:15.868Z,98991.72
2022-08-16T19:51:48.248Z,98996.13
2022-08-16T19:54:16.430Z,98994.56
2022-08-16T19:56:44.000Z,99000.78
2022-08-16T19:59:20.987Z,98999.88
2022-08-16T20:01:52.241Z,99006.06
2022-08-16T20:04:21.838Z,99013.00
2022-08-16T20:06:50.358Z,99007.63
2022-08-16T20:09:22.791Z,99016.13
2022-08-16T20:11:52.626Z,99006.63
2022-08-16T20:14:25.284Z,99009.91
2022-08-16T20:16:58.268Z,99009.72
2022-08-16T20:19:29.810Z,99010.25
2022-08-16T20:22:09.006Z,99011.00
2022-08-16T20:24:36.689Z,99013.72
2022-08-16T20:27:07.713Z,99015.94
2022-08-16T20:29:36.577Z,99015.94
2022-08-16T20:32:08.538Z,99011.00
2022-08-16T20:34:35.942Z,99022.22
2022-08-16T20:37:03.056Z,99015.19
2022-08-16T20:39:30.324Z,99009.53
2022-08-16T20:41:57.768Z,99020.25
2022-08-16T20:44:25.219Z,99013.72
2022-08-16T20:46:52.921Z,99013.44
2022-08-16T20:49:20.414Z,99018.94
2022-08-16T20:51:50.698Z,99018.72
2022-08-16T20:54:26.762Z,99025.78
2022-08-16T20:56:56.418Z,99031.16
2022-08-16T20:59:23.651Z,99029.06
2022-08-16T21:01:53.715Z,99026.69
2022-08-16T21:04:23.296Z,99024.28
2022-08-16T21:06:55.130Z,99018.25
2022-08-16T21:09:29.089Z,99024.53
2022-08-16T21:12:03.515Z,99022.78
2022-08-16T21:14:34.073Z,99026.47
2022-08-16T21:17:08.412Z,99028.16
2022-08-16T21:19:37.408Z,99023.72
2022-08-16T21:22:23.658Z,99026.03
2022-08-16T21:24:53.984Z,99021.66
2022-08-16T21:27:21.573Z,99026.78
2022-08-16T21:29:52.565Z,99037.06
2022-08-16T21:32:35.026Z,99034.81
2022-08-16T21:35:10.225Z,99029.91
2022-08-16T21:37:38.204Z,99033.38
2022-08-16T21:40:10.456Z,99034.00
2022-08-16T21:42:42.249Z,99037.25
2022-08-16T21:45:14.414Z,99027.31
2022-08-16T21:47:42.468Z,99030.34
2022-08-16T21:50:10.865Z,99035.38
2022-08-16T21:52:38.118Z,99031.09
2022-08-16T21:55:06.693Z,99034.09
2022-08-16T21:57:36.238Z,99028.66
2022-08-16T22:00:10.907Z,99037.16
2022-08-16T22:02:38.893Z,99028.75
2022-08-16T22:05:06.783Z,99042.91
2022-08-16T22:07:34.005Z,99042.53
2022-08-16T22:11:05.054Z,99036.88
2022-08-16T22:12:51.746Z,99035.06
2022-08-16T22:15:25.646Z,99034.75
2022-08-16T22:17:55.690Z,99039.38
2022-08-16T22:20:25.969Z,99033.22
2022-08-16T22:23:03.428Z,99036.72
2022-08-16T22:25:32.837Z,99040.69
2022-08-16T22:28:00.079Z,99035.75
2022-08-16T22:30:27.161Z,99039.22
2022-08-16T22:32:55.046Z,99037.66
2022-08-16T22:35:22.279Z,99040.16
2022-08-16T22:38:50.611Z,99039.25
2022-08-16T22:40:36.753Z,99039.94
2022-08-16T22:43:05.139Z,99039.13
2022-08-16T22:45:32.195Z,99043.28
2022-08-16T22:48:00.860Z,99041.50
2022-08-16T22:50:28.936Z,99044.66
2022-08-16T22:52:57.335Z,99035.09
2022-08-16T22:55:26.768Z,99035.72
2022-08-16T22:57:56.272Z,99038.25
2022-08-16T23:00:25.637Z,99033.13
2022-08-16T23:02:56.479Z,99034.47
2022-08-16T23:05:26.816Z,99032.78
2022-08-16T23:07:54.066Z,99027.97
2022-08-16T23:10:21.975Z,99029.84
2022-08-16T23:12:54.528Z,99027.25
2022-08-16T23:15:23.192Z,99023.03
2022-08-16T23:17:50.418Z,99018.88
2022-08-16T23:20:19.807Z,99018.97
2022-08-16T23:23:20.968Z,99014.91
2022-08-16T23:25:40.180Z,99012.59
2022-08-16T23:28:08.077Z,99023.91
2022-08-16T23:30:40.533Z,99018.44
2022-08-16T23:33:13.150Z,99013.91
2022-08-16T23:35:45.350Z,99008.78
2022-08-16T23:38:37.513Z,99014.88
2022-08-16T23:41:02.441Z,99006.41
2022-08-16T23:43:34.118Z,99016.09
2022-08-16T23:46:04.418Z,99014.41
2022-08-16T23:49:57.446Z,99017.72
2022-08-16T23:51:21.268Z,99025.75
2022-08-16T23:53:48.520Z,99027.41
2022-08-16T23:56:20.397Z,99020.59
2022-08-16T23:58:54.382Z,99020.00
